Time;durP1;ratioP1;P1;durP2;ratioP2;P2;SDS_P1;SDS_P2;PMS_P1;PMS_P2;Temp;Humidity;BMP_temperature;BMP_pressure;BME280_temperature;BME280_humidity;BME280_pressure;Samples;Min_cycle;Max_cycle;Signal;HPM_P1;HPM_P2
2024/02/29 00:00:36;;;;;;;7.95;6.40;;;9.60;81.60;;;;;;4807662;29;20042;-95
2024/02/29 00:03:03;;;;;;;7.68;6.15;;;9.60;81.60;;;;;;4808146;29;20034;-95
2024/02/29 00:05:28;;;;;;;7.25;6.03;;;9.60;81.70;;;;;;4803106;29;20042;-95
2024/02/29 00:07:54;;;;;;;8.38;6.40;;;9.60;81.60;;;;;;4793738;29;20492;-93
2024/02/29 00:10:20;;;;;;;7.80;5.95;;;9.50;81.60;;;;;;4793778;29;20034;-95
2024/02/29 00:12:46;;;;;;;7.93;6.20;;;9.50;81.70;;;;;;4806855;29;20096;-95
2024/02/29 00:15:12;;;;;;;8.27;6.40;;;9.50;81.70;;;;;;4805857;29;20057;-81
2024/02/29 00:17:38;;;;;;;7.50;6.13;;;9.50;81.70;;;;;;4818545;29;20035;-81
2024/02/29 00:20:08;;;;;;;7.65;6.10;;;9.50;81.70;;;;;;4791824;29;20037;-88
2024/02/29 00:22:43;;;;;;;7.93;6.38;;;9.40;81.70;;;;;;4806683;29;20042;-96
2024/02/29 00:25:12;;;;;;;7.72;6.00;;;9.50;81.70;;;;;;4804576;29;20035;-88
2024/02/29 00:27:38;;;;;;;7.40;6.20;;;9.40;81.70;;;;;;4799116;29;20080;-81
2024/02/29 00:30:04;;;;;;;8.13;6.22;;;9.40;81.70;;;;;;4805354;29;20030;-81
2024/02/29 00:32:30;;;;;;;7.63;6.30;;;9.40;81.70;;;;;;4788231;29;20031;-81
2024/02/29 00:34:56;;;;;;;7.60;6.43;;;9.40;81.70;;;;;;4804145;29;20105;-81
2024/02/29 00:37:22;;;;;;;8.43;6.03;;;9.40;81.90;;;;;;4803691;29;20022;-81
2024/02/29 00:39:48;;;;;;;7.65;6.20;;;9.40;81.80;;;;;;4816733;29;20049;-79
2024/02/29 00:42:14;;;;;;;7.03;5.88;;;9.40;81.80;;;;;;4805888;29;20419;-79
2024/02/29 00:44:39;;;;;;;8.73;6.20;;;9.40;81.80;;;;;;4790786;29;20125;-95
2024/02/29 00:47:06;;;;;;;6.88;6.07;;;9.30;81.80;;;;;;4796003;29;20037;-81
2024/02/29 00:49:34;;;;;;;7.60;6.25;;;9.30;81.80;;;;;;4791442;29;20031;-82
2024/02/29 00:52:01;;;;;;;7.63;6.20;;;9.30;81.90;;;;;;4821593;29;20026;-87
2024/02/29 00:54:26;;;;;;;8.70;5.95;;;9.30;81.80;;;;;;4791249;29;20509;-79
2024/02/29 00:56:52;;;;;;;8.77;6.22;;;9.30;81.90;;;;;;4804921;29;20522;-95
2024/02/29 00:59:18;;;;;;;7.65;6.28;;;9.30;81.90;;;;;;4793070;29;20060;-95
2024/02/29 01:01:44;;;;;;;7.45;5.80;;;9.30;81.90;;;;;;4807335;29;20079;-80
2024/02/29 01:04:09;;;;;;;7.82;5.97;;;9.30;81.80;;;;;;4792456;29;20046;-95
2024/02/29 01:06:35;;;;;;;7.25;5.78;;;9.30;81.90;;;;;;4823645;29;20041;-88
2024/02/29 01:09:01;;;;;;;7.43;5.75;;;9.20;81.80;;;;;;4789005;29;20125;-79
2024/02/29 01:11:28;;;;;;;7.55;5.78;;;9.20;81.80;;;;;;4787860;29;20031;-79
2024/02/29 01:13:53;;;;;;;7.45;5.97;;;9.30;81.90;;;;;;4788432;29;20032;-88
2024/02/29 01:16:22;;;;;;;7.95;6.13;;;9.20;81.90;;;;;;4807010;29;20384;-94
2024/02/29 01:18:49;;;;;;;8.50;6.53;;;9.20;81.90;;;;;;4802548;29;20487;-79
2024/02/29 01:21:14;;;;;;;8.43;6.38;;;9.20;81.90;;;;;;4806430;29;20441;-88
2024/02/29 01:23:42;;;;;;;8.15;6.43;;;9.20;81.90;;;;;;4789535;29;20481;-87
2024/02/29 01:26:10;;;;;;;8.07;5.95;;;9.20;81.90;;;;;;4806767;29;20018;-93
2024/02/29 01:28:37;;;;;;;9.00;6.03;;;9.20;81.90;;;;;;4808289;29;20424;-95
2024/02/29 01:31:04;;;;;;;7.95;5.75;;;9.20;81.90;;;;;;4810952;29;20412;-87
2024/02/29 01:33:33;;;;;;;8.00;6.28;;;9.20;81.90;;;;;;4793299;29;20058;-81
2024/02/29 01:35:58;;;;;;;8.95;6.85;;;9.20;81.90;;;;;;4824187;29;20034;-94
2024/02/29 01:38:24;;;;;;;7.45;5.82;;;9.20;81.90;;;;;;4796594;29;20030;-81
2024/02/29 01:40:50;;;;;;;7.28;6.15;;;9.20;81.90;;;;;;4810230;29;20153;-85
2024/02/29 01:43:16;;;;;;;7.60;5.90;;;9.20;81.90;;;;;;4786434;29;20033;-88
2024/02/29 01:45:43;;;;;;;7.82;5.97;;;9.20;81.90;;;;;;4794561;29;20031;-88
2024/02/29 01:48:10;;;;;;;10.00;6.85;;;9.20;81.90;;;;;;4805673;29;20558;-81
2024/02/29 01:50:37;;;;;;;8.57;6.43;;;9.20;81.90;;;;;;4804399;29;20436;-81
2024/02/29 01:53:04;;;;;;;8.50;6.18;;;9.20;81.90;;;;;;4802327;29;20125;-81
2024/02/29 01:55:30;;;;;;;8.68;6.32;;;9.20;81.90;;;;;;4809732;29;20042;-81
2024/02/29 01:57:56;;;;;;;8.50;6.38;;;9.20;81.90;;;;;;4815447;29;20042;-81
2024/02/29 02:00:22;;;;;;;8.30;5.97;;;9.20;81.90;;;;;;4817063;29;20103;-79
2024/02/29 02:02:48;;;;;;;8.63;6.07;;;9.20;81.90;;;;;;4800479;29;20396;-82
2024/02/29 02:05:14;;;;;;;7.90;6.15;;;9.20;81.90;;;;;;4807497;29;20061;-81
2024/02/29 02:07:43;;;;;;;9.10;6.28;;;9.20;81.90;;;;;;4809858;29;20057;-87
2024/02/29 02:10:13;;;;;;;8.80;6.75;;;9.20;81.90;;;;;;4809979;29;20033;-96
2024/02/29 02:12:40;;;;;;;8.93;6.53;;;9.20;81.90;;;;;;4791644;29;20061;-81
2024/02/29 02:15:06;;;;;;;8.65;6.32;;;9.20;81.90;;;;;;4793682;29;20041;-87
2024/02/29 02:17:32;;;;;;;9.23;7.05;;;9.20;81.90;;;;;;4799454;29;20026;-87
2024/02/29 02:19:59;;;;;;;9.30;6.80;;;9.20;81.90;;;;;;4792694;29;20037;-88
2024/02/29 02:22:26;;;;;;;7.82;6.10;;;9.20;81.90;;;;;;4787019;29;20094;-81
2024/02/29 02:24:52;;;;;;;9.18;6.47;;;9.20;81.90;;;;;;4809018;29;20051;-94
2024/02/29 02:27:18;;;;;;;8.90;6.80;;;9.20;81.90;;;;;;4789135;29;20031;-87
2024/02/29 02:29:44;;;;;;;9.27;6.35;;;9.20;81.90;;;;;;4799790;29;20039;-81
2024/02/29 02:32:10;;;;;;;8.65;6.47;;;9.20;81.90;;;;;;4805089;29;20117;-94
2024/02/29 02:34:36;;;;;;;9.02;6.70;;;9.20;81.90;;;;;;4787319;29;20053;-81
2024/02/29 02:37:03;;;;;;;9.00;6.45;;;9.20;81.90;;;;;;4820429;29;20032;-81
2024/02/29 02:39:29;;;;;;;9.50;6.60;;;9.20;82.50;;;;;;4805553;29;20023;-88
2024/02/29 02:41:55;;;;;;;9.10;6.45;;;9.20;81.90;;;;;;4804411;29;20034;-88
2024/02/29 02:44:21;;;;;;;9.02;6.80;;;9.20;81.80;;;;;;4803432;29;20050;-95
2024/02/29 02:46:46;;;;;;;9.52;6.88;;;9.30;81.90;;;;;;4805895;29;20049;-94
2024/02/29 02:49:13;;;;;;;9.13;6.57;;;9.20;81.80;;;;;;4805425;29;20034;-94
2024/02/29 02:51:42;;;;;;;9.30;6.72;;;9.30;81.90;;;;;;4819109;29;20026;-81
2024/02/29 02:54:09;;;;;;;9.95;6.78;;;9.30;81.80;;;;;;4785775;29;20055;-81
2024/02/29 02:56:35;;;;;;;9.57;6.85;;;9.30;81.80;;;;;;4805975;29;20163;-93
2024/02/29 02:59:01;;;;;;;11.38;6.95;;;9.30;81.80;;;;;;4809279;29;20034;-79
2024/02/29 03:01:26;;;;;;;10.18;7.07;;;9.30;81.90;;;;;;4821717;29;20038;-79
2024/02/29 03:03:52;;;;;;;9.35;6.82;;;9.20;81.90;;;;;;4800627;29;20049;-87
2024/02/29 03:06:18;;;;;;;9.57;7.28;;;9.30;81.90;;;;;;4790421;29;20038;-79
2024/02/29 03:08:44;;;;;;;9.48;6.68;;;9.30;81.90;;;;;;4803637;29;20046;-79
2024/02/29 03:11:10;;;;;;;10.23;6.97;;;9.20;81.80;;;;;;4780980;29;20050;-81
2024/02/29 03:13:36;;;;;;;9.07;6.70;;;9.20;81.80;;;;;;4789309;29;20606;-95
2024/02/29 03:16:02;;;;;;;9.13;6.93;;;9.30;81.90;;;;;;4818780;29;20050;-96
2024/02/29 03:18:27;;;;;;;8.32;6.18;;;9.30;81.90;;;;;;4806536;29;20064;-95
2024/02/29 03:20:53;;;;;;;9.38;6.65;;;9.30;81.90;;;;;;4801326;29;20433;-79
2024/02/29 03:23:20;;;;;;;9.75;6.75;;;9.30;81.90;;;;;;4792274;29;20073;-81
2024/02/29 03:25:46;;;;;;;10.57;6.80;;;9.30;81.90;;;;;;4801477;29;20145;-96
2024/02/29 03:28:12;;;;;;;9.38;6.85;;;9.30;81.90;;;;;;4795692;29;20171;-79
2024/02/29 03:30:38;;;;;;;9.68;6.60;;;9.30;81.90;;;;;;4793298;29;20113;-95
2024/02/29 03:33:04;;;;;;;10.20;7.15;;;9.30;81.90;;;;;;4793935;29;20142;-81
2024/02/29 03:35:29;;;;;;;10.18;7.32;;;9.30;81.90;;;;;;4804608;29;20034;-79
2024/02/29 03:37:55;;;;;;;10.10;7.05;;;9.30;81.90;;;;;;4806889;29;20270;-96
2024/02/29 03:40:21;;;;;;;10.70;7.55;;;9.30;81.90;;;;;;4781739;29;20109;-89
2024/02/29 03:42:47;;;;;;;9.30;6.43;;;9.30;81.90;;;;;;4801772;29;20487;-88
2024/02/29 03:45:12;;;;;;;9.75;7.07;;;9.30;81.90;;;;;;4804423;29;20039;-96
2024/02/29 03:47:38;;;;;;;10.45;7.18;;;9.30;81.90;;;;;;4809823;29;20091;-94
2024/02/29 03:50:05;;;;;;;10.38;6.82;;;9.30;81.90;;;;;;4793493;29;20075;-94
2024/02/29 03:52:31;;;;;;;11.27;7.32;;;9.30;81.90;;;;;;4807512;29;20063;-80
2024/02/29 03:54:56;;;;;;;9.75;6.68;;;9.30;81.90;;;;;;4788309;29;20035;-80
2024/02/29 03:57:23;;;;;;;11.50;7.78;;;9.30;81.80;;;;;;4821308;29;20026;-80
2024/02/29 03:59:49;;;;;;;9.57;6.60;;;9.30;81.90;;;;;;4780954;29;20146;-89
2024/02/29 04:02:15;;;;;;;10.45;7.55;;;9.30;81.90;;;;;;4808121;29;20029;-96
2024/02/29 04:04:41;;;;;;;11.10;8.00;;;9.30;81.90;;;;;;4799098;29;20512;-96
2024/02/29 04:07:08;;;;;;;11.02;7.07;;;9.30;81.90;;;;;;4824942;29;20041;-95
2024/02/29 04:09:35;;;;;;;10.35;7.22;;;9.30;81.90;;;;;;4809815;29;20034;-96
2024/02/29 04:12:00;;;;;;;9.43;6.95;;;9.30;81.90;;;;;;4791988;29;20062;-82
2024/02/29 04:14:26;;;;;;;10.52;7.50;;;9.30;81.90;;;;;;4804768;29;20073;-81
2024/02/29 04:16:52;;;;;;;9.45;6.75;;;9.30;81.90;;;;;;4811373;29;20085;-80
2024/02/29 04:19:18;;;;;;;10.57;7.30;;;9.30;81.90;;;;;;4808990;29;20468;-89
2024/02/29 04:21:45;;;;;;;9.52;7.18;;;9.30;81.90;;;;;;4794273;29;20698;-80
2024/02/29 04:24:11;;;;;;;11.07;6.93;;;9.30;81.90;;;;;;4810156;29;20121;-83
2024/02/29 04:26:37;;;;;;;10.18;7.00;;;9.30;81.80;;;;;;4791330;29;20062;-89
2024/02/29 04:29:03;;;;;;;10.15;7.50;;;9.30;81.80;;;;;;4798350;29;20090;-82
2024/02/29 04:31:30;;;;;;;10.13;6.93;;;9.30;81.80;;;;;;4809502;29;20419;-96
2024/02/29 04:33:56;;;;;;;9.80;6.85;;;9.30;81.80;;;;;;4826561;29;20030;-80
2024/02/29 04:36:21;;;;;;;10.07;7.05;;;9.30;81.80;;;;;;4794163;29;20417;-90
2024/02/29 04:38:49;;;;;;;11.45;8.13;;;9.40;81.80;;;;;;4799071;29;20039;-82
2024/02/29 04:41:16;;;;;;;11.63;7.70;;;9.30;81.80;;;;;;4789604;29;20685;-89
2024/02/29 04:43:43;;;;;;;9.63;6.70;;;9.30;81.80;;;;;;4797814;29;20026;-83
2024/02/29 04:46:09;;;;;;;9.88;7.20;;;9.40;81.90;;;;;;4802643;29;20030;-80
2024/02/29 04:48:35;;;;;;;10.80;7.78;;;9.40;82.00;;;;;;4808330;29;20031;-96
2024/02/29 04:51:00;;;;;;;9.95;7.20;;;9.30;81.90;;;;;;4808129;29;20033;-80
2024/02/29 04:53:26;;;;;;;10.60;7.60;;;9.30;81.90;;;;;;4790550;29;20034;-80
2024/02/29 04:55:52;;;;;;;9.60;7.00;;;9.30;81.90;;;;;;4795089;29;20125;-96
2024/02/29 04:58:18;;;;;;;9.38;7.13;;;9.40;82.00;;;;;;4811419;29;20023;-96
2024/02/29 05:00:44;;;;;;;10.40;6.95;;;9.40;81.90;;;;;;4808937;29;20027;-81
2024/02/29 05:03:10;;;;;;;9.82;7.55;;;9.40;81.90;;;;;;4794072;29;20030;-89
2024/02/29 05:08:57;;;;;;;9.65;6.50;;;9.40;82.00;;;;;;5144998;24;20063;-96
2024/02/29 05:11:22;;;;;;;9.10;6.40;;;9.40;81.90;;;;;;4806666;29;20054;-90
2024/02/29 05:13:48;;;;;;;9.20;6.68;;;9.40;81.90;;;;;;4797256;29;20072;-90
2024/02/29 05:16:20;;;;;;;10.73;7.13;;;9.40;81.90;;;;;;4793889;29;20054;-81
2024/02/29 05:18:45;;;;;;;10.75;7.38;;;9.40;81.90;;;;;;4805658;29;20091;-85
2024/02/29 05:21:11;;;;;;;10.18;7.15;;;9.40;81.90;;;;;;4799637;29;20290;-87
2024/02/29 05:23:37;;;;;;;10.35;7.35;;;9.40;81.90;;;;;;4791281;29;20098;-94
2024/02/29 05:26:04;;;;;;;10.38;7.00;;;9.40;81.90;;;;;;4807950;29;20114;-80
2024/02/29 05:28:30;;;;;;;10.20;7.63;;;9.40;81.90;;;;;;4789445;29;20424;-87
2024/02/29 05:30:57;;;;;;;9.35;6.95;;;9.40;81.90;;;;;;4807322;29;20084;-81
2024/02/29 05:33:24;;;;;;;9.70;7.15;;;9.40;81.90;;;;;;4801865;29;20097;-90
2024/02/29 05:35:51;;;;;;;9.82;7.22;;;9.50;81.90;;;;;;4795743;29;20054;-82
2024/02/29 05:38:17;;;;;;;9.63;6.40;;;9.40;81.80;;;;;;4820525;29;20030;-81
2024/02/29 05:40:43;;;;;;;10.52;7.28;;;9.40;81.70;;;;;;4808555;29;20427;-88
2024/02/29 05:43:09;;;;;;;10.05;7.07;;;9.40;81.70;;;;;;4812239;29;20162;-80
2024/02/29 05:45:35;;;;;;;8.93;6.65;;;9.40;81.70;;;;;;4804174;29;20494;-88
2024/02/29 05:48:04;;;;;;;9.93;7.28;;;9.40;81.80;;;;;;4799286;29;20061;-80
2024/02/29 05:50:30;;;;;;;10.38;7.07;;;9.50;81.80;;;;;;4808692;29;20019;-81
2024/02/29 05:52:58;;;;;;;9.55;6.88;;;9.50;81.80;;;;;;4807946;29;20150;-80
2024/02/29 05:55:24;;;;;;;9.90;7.43;;;9.50;81.80;;;;;;4804563;29;20120;-81
2024/02/29 05:57:50;;;;;;;9.70;7.25;;;9.40;81.70;;;;;;4791168;29;20034;-81
2024/02/29 06:00:18;;;;;;;9.73;7.22;;;9.50;81.80;;;;;;4812057;29;20042;-82
2024/02/29 06:02:44;;;;;;;9.85;7.07;;;9.50;81.80;;;;;;4790102;29;20061;-81
2024/02/29 06:05:10;;;;;;;9.77;7.50;;;9.50;81.80;;;;;;4809113;29;20046;-82
2024/02/29 06:07:36;;;;;;;9.25;7.15;;;9.40;81.80;;;;;;4783809;29;20031;-82
2024/02/29 06:10:10;;;;;;;9.48;6.75;;;9.40;81.70;;;;;;4787176;29;20093;-81
2024/02/29 06:12:39;;;;;;;10.38;7.35;;;9.50;81.80;;;;;;4804331;29;20065;-82
2024/02/29 06:15:06;;;;;;;10.32;7.00;;;9.50;81.80;;;;;;4789764;29;20037;-89
2024/02/29 06:17:32;;;;;;;9.82;6.93;;;9.50;81.80;;;;;;4789017;29;20034;-95
2024/02/29 06:19:58;;;;;;;9.68;7.22;;;9.50;81.80;;;;;;4821322;29;20476;-85
2024/02/29 06:22:24;;;;;;;11.05;7.43;;;9.50;81.90;;;;;;4796251;29;20105;-86
2024/02/29 06:24:53;;;;;;;9.38;6.88;;;9.50;81.90;;;;;;4813214;29;20125;-91
2024/02/29 06:27:22;;;;;;;10.10;7.13;;;9.50;81.80;;;;;;4795654;29;20027;-86
2024/02/29 06:29:48;;;;;;;9.40;7.00;;;9.50;81.80;;;;;;4805039;29;20058;-80
2024/02/29 06:32:14;;;;;;;11.23;7.65;;;9.50;81.80;;;;;;4794176;29;20069;-95
2024/02/29 06:34:43;;;;;;;9.07;6.93;;;9.50;81.80;;;;;;4794973;29;20041;-93
2024/02/29 06:37:11;;;;;;;8.52;6.45;;;9.50;81.80;;;;;;4805669;29;20057;-92
2024/02/29 06:39:37;;;;;;;8.82;6.90;;;9.50;81.70;;;;;;4804125;29;20064;-84
2024/02/29 06:42:03;;;;;;;9.13;7.07;;;9.50;81.70;;;;;;4789639;29;20499;-79
2024/02/29 06:44:29;;;;;;;11.45;8.18;;;9.50;81.70;;;;;;4808167;29;20156;-81
2024/02/29 06:46:55;;;;;;;8.90;6.65;;;9.50;82.30;;;;;;4806478;29;20153;-86
2024/02/29 06:49:22;;;;;;;9.50;7.18;;;9.50;81.70;;;;;;4808230;29;20034;-79
2024/02/29 06:51:49;;;;;;;9.35;7.03;;;9.50;81.70;;;;;;4802148;29;20055;-79
2024/02/29 06:54:14;;;;;;;9.02;6.68;;;9.50;81.70;;;;;;4789741;29;20030;-78
2024/02/29 06:56:40;;;;;;;10.05;7.10;;;9.50;81.70;;;;;;4810911;29;20027;-89
2024/02/29 06:59:06;;;;;;;9.70;7.15;;;9.50;81.70;;;;;;4789925;29;20050;-95
2024/02/29 07:01:32;;;;;;;9.35;6.85;;;9.50;81.80;;;;;;4803317;29;20480;-90
2024/02/29 07:03:59;;;;;;;9.10;6.35;;;9.50;81.80;;;;;;4793270;29;20093;-78
2024/02/29 07:06:25;;;;;;;9.07;6.65;;;9.50;81.90;;;;;;4793043;29;20041;-91
2024/02/29 07:08:52;;;;;;;9.10;6.88;;;9.50;81.90;;;;;;4805437;29;20074;-80
2024/02/29 07:11:19;;;;;;;9.50;7.25;;;9.50;81.90;;;;;;4782538;29;20087;-79
2024/02/29 07:13:48;;;;;;;8.65;6.88;;;9.50;82.00;;;;;;4803075;29;21287;-88
2024/02/29 07:16:14;;;;;;;10.10;7.07;;;9.50;81.90;;;;;;4812245;29;20102;-95
2024/02/29 07:18:40;;;;;;;10.15;7.50;;;9.50;81.90;;;;;;4812784;29;20031;-95
2024/02/29 07:21:06;;;;;;;9.85;6.70;;;9.50;81.90;;;;;;4791739;29;20498;-86
2024/02/29 07:23:32;;;;;;;8.93;6.65;;;9.60;81.90;;;;;;4793362;29;20107;-86
2024/02/29 07:26:02;;;;;;;8.60;6.65;;;9.60;81.90;;;;;;4796590;29;20036;-80
2024/02/29 07:28:27;;;;;;;8.90;6.75;;;9.60;81.90;;;;;;4812515;29;20039;-79
2024/02/29 07:30:53;;;;;;;11.25;7.07;;;9.50;81.80;;;;;;4806584;29;20033;-79
2024/02/29 07:33:20;;;;;;;8.77;6.50;;;9.60;82.40;;;;;;4798103;29;20026;-87
2024/02/29 07:35:47;;;;;;;11.20;7.30;;;9.60;81.80;;;;;;4803937;29;20083;-80
2024/02/29 07:38:12;;;;;;;8.85;6.35;;;9.60;81.70;;;;;;4797292;29;20049;-95
2024/02/29 07:40:38;;;;;;;9.13;6.60;;;9.60;81.70;;;;;;4814480;29;20403;-86
2024/02/29 07:43:06;;;;;;;8.75;6.57;;;9.60;81.70;;;;;;4808652;29;20030;-81
2024/02/29 07:45:31;;;;;;;9.35;6.88;;;9.60;81.70;;;;;;4802188;29;20038;-80
2024/02/29 07:47:57;;;;;;;11.07;7.05;;;9.60;81.70;;;;;;4788929;29;20030;-81
2024/02/29 07:50:23;;;;;;;10.38;7.07;;;9.70;81.80;;;;;;4798473;29;20396;-81
2024/02/29 07:52:49;;;;;;;9.50;7.07;;;9.70;81.80;;;;;;4790745;29;20483;-94
2024/02/29 07:55:16;;;;;;;8.48;6.80;;;9.60;81.70;;;;;;4800368;29;20038;-82
2024/02/29 07:57:45;;;;;;;8.45;6.38;;;9.70;81.80;;;;;;4801778;29;20553;-85
2024/02/29 08:00:11;;;;;;;8.65;6.28;;;9.70;81.80;;;;;;4813897;29;20038;-81
2024/02/29 08:02:42;;;;;;;9.93;6.57;;;9.70;81.80;;;;;;4809137;29;20026;-95
2024/02/29 08:05:08;;;;;;;10.77;6.97;;;9.70;81.70;;;;;;4799476;29;20038;-95
2024/02/29 08:07:34;;;;;;;10.45;6.40;;;9.70;81.70;;;;;;4814655;29;20475;-81
2024/02/29 08:10:01;;;;;;;9.43;6.28;;;9.70;81.70;;;;;;4805987;29;20518;-80
2024/02/29 08:12:27;;;;;;;8.77;6.72;;;9.70;81.70;;;;;;4793459;29;20011;-96
2024/02/29 08:14:53;;;;;;;10.27;7.05;;;9.70;81.70;;;;;;4809088;29;20027;-81
2024/02/29 08:17:18;;;;;;;10.20;6.63;;;9.70;81.70;;;;;;4803281;29;20025;-80
2024/02/29 08:19:44;;;;;;;10.45;6.68;;;9.70;81.70;;;;;;4806912;29;20026;-81
2024/02/29 08:22:10;;;;;;;10.55;7.18;;;9.70;81.70;;;;;;4792017;29;20022;-79
2024/02/29 08:24:37;;;;;;;8.00;6.25;;;9.70;81.70;;;;;;4821123;29;20037;-81
2024/02/29 08:27:06;;;;;;;10.27;6.95;;;9.70;81.70;;;;;;4822092;29;20030;-95
2024/02/29 08:29:32;;;;;;;10.00;6.70;;;9.80;81.70;;;;;;4793246;29;20041;-81
2024/02/29 08:31:58;;;;;;;8.23;6.50;;;9.80;81.80;;;;;;4813018;29;20042;-81
2024/02/29 08:34:23;;;;;;;10.15;6.82;;;9.80;81.70;;;;;;4788374;29;20039;-91
2024/02/29 08:36:49;;;;;;;9.95;6.88;;;9.80;81.70;;;;;;4806610;29;20065;-80
2024/02/29 08:39:17;;;;;;;10.27;7.50;;;9.80;81.70;;;;;;4813218;29;20754;-79
2024/02/29 08:41:44;;;;;;;9.30;6.80;;;9.80;81.70;;;;;;4802701;29;20030;-81
2024/02/29 08:44:10;;;;;;;10.82;6.70;;;9.80;81.70;;;;;;4805586;29;20034;-79
2024/02/29 08:46:36;;;;;;;8.85;6.22;;;9.80;81.70;;;;;;4806639;29;20082;-94
2024/02/29 08:49:02;;;;;;;9.27;6.85;;;9.80;81.70;;;;;;4826768;29;20034;-81
2024/02/29 08:51:28;;;;;;;10.23;6.88;;;9.80;81.70;;;;;;4794767;29;20057;-94
2024/02/29 08:53:55;;;;;;;9.57;6.28;;;9.80;81.60;;;;;;4815383;29;20079;-81
2024/02/29 08:56:21;;;;;;;10.25;7.10;;;9.90;81.70;;;;;;4785672;29;20031;-81
2024/02/29 08:58:46;;;;;;;8.48;6.03;;;9.90;81.70;;;;;;4794841;29;20041;-81
2024/02/29 09:01:12;;;;;;;11.07;6.75;;;9.90;81.70;;;;;;4807403;29;20023;-79
2024/02/29 09:03:38;;;;;;;9.27;6.68;;;9.90;81.70;;;;;;4791044;29;20121;-79
2024/02/29 09:06:05;;;;;;;11.38;7.30;;;9.90;82.00;;;;;;4804231;29;20023;-81
2024/02/29 09:08:32;;;;;;;10.05;7.35;;;9.90;81.60;;;;;;4798940;29;20049;-79
2024/02/29 09:10:58;;;;;;;9.65;7.03;;;9.90;81.60;;;;;;4804278;29;20100;-86
2024/02/29 09:13:24;;;;;;;8.30;6.43;;;9.90;81.70;;;;;;4804396;29;20027;-86
2024/02/29 09:15:49;;;;;;;9.90;7.07;;;9.90;81.60;;;;;;4795615;29;20035;-80
2024/02/29 09:18:15;;;;;;;8.23;6.43;;;10.00;81.70;;;;;;4807324;29;20057;-87
2024/02/29 09:20:41;;;;;;;10.70;6.88;;;10.00;81.70;;;;;;4808896;29;20036;-83
2024/02/29 09:23:07;;;;;;;9.40;6.53;;;10.00;81.70;;;;;;4791734;29;20077;-94
2024/02/29 09:25:33;;;;;;;9.40;6.47;;;10.00;81.60;;;;;;4802232;29;20057;-82
2024/02/29 09:27:59;;;;;;;9.30;6.97;;;10.00;81.60;;;;;;4811272;29;20045;-92
2024/02/29 09:30:25;;;;;;;10.07;7.20;;;10.00;81.60;;;;;;4799559;29;20035;-87
2024/02/29 09:32:52;;;;;;;9.45;6.40;;;10.00;81.60;;;;;;4805928;29;20038;-87
2024/02/29 09:35:21;;;;;;;9.02;6.72;;;10.00;81.60;;;;;;4795840;29;20066;-82
2024/02/29 09:37:48;;;;;;;10.13;7.20;;;10.10;81.60;;;;;;4807109;29;20035;-95
2024/02/29 09:40:15;;;;;;;9.95;6.95;;;10.10;81.60;;;;;;4796175;29;20094;-95
2024/02/29 09:42:44;;;;;;;9.27;6.20;;;10.10;81.60;;;;;;4813560;29;20045;-79
2024/02/29 09:45:14;;;;;;;9.13;6.88;;;10.10;81.60;;;;;;4813227;29;20042;-87
2024/02/29 09:47:41;;;;;;;9.13;6.10;;;10.10;81.60;;;;;;4805688;29;20041;-95
2024/02/29 09:50:08;;;;;;;9.52;6.38;;;10.10;81.50;;;;;;4798420;29;20629;-95
2024/02/29 09:52:38;;;;;;;10.68;7.45;;;10.10;81.50;;;;;;4811419;29;20134;-93
2024/02/29 09:55:12;;;;;;;9.65;6.50;;;10.20;81.60;;;;;;4804439;29;20042;-96
2024/02/29 09:57:39;;;;;;;9.75;6.90;;;10.20;81.60;;;;;;4812126;29;20507;-95
2024/02/29 10:00:10;;;;;;;10.25;6.82;;;10.20;81.60;;;;;;4791568;29;20030;-81
2024/02/29 10:02:38;;;;;;;9.52;6.72;;;10.20;81.60;;;;;;4804487;29;20607;-79
2024/02/29 10:05:09;;;;;;;8.75;6.72;;;10.20;81.50;;;;;;4790438;29;20046;-87
2024/02/29 10:07:47;;;;;;;8.85;6.65;;;10.20;81.50;;;;;;4802290;29;20027;-87
2024/02/29 10:10:15;;;;;;;9.18;6.75;;;10.30;81.60;;;;;;4815374;29;20050;-80
2024/02/29 10:12:43;;;;;;;9.50;6.55;;;10.30;81.50;;;;;;4816158;29;20072;-87
2024/02/29 10:15:10;;;;;;;9.75;7.30;;;10.30;81.50;;;;;;4795185;29;20098;-80
2024/02/29 10:17:39;;;;;;;12.15;7.18;;;10.30;81.50;;;;;;4819411;29;20030;-87
2024/02/29 10:20:11;;;;;;;8.55;6.32;;;10.30;81.50;;;;;;4793360;29;20510;-86
2024/02/29 10:22:40;;;;;;;9.73;6.70;;;10.30;81.50;;;;;;4799206;29;20079;-94
2024/02/29 10:25:14;;;;;;;8.23;6.55;;;10.40;81.50;;;;;;4809457;29;20030;-81
2024/02/29 10:27:43;;;;;;;9.30;6.53;;;10.40;81.50;;;;;;4806826;29;20045;-95
2024/02/29 10:30:16;;;;;;;9.88;6.68;;;10.40;81.40;;;;;;4809124;29;20522;-82
2024/02/29 10:32:43;;;;;;;11.02;7.05;;;10.40;81.40;;;;;;4812491;29;20096;-80
2024/02/29 10:35:16;;;;;;;9.27;6.57;;;10.40;81.40;;;;;;4803181;29;20035;-81
2024/02/29 10:37:41;;;;;;;9.85;6.88;;;10.50;81.40;;;;;;4805261;29;20083;-80
2024/02/29 10:40:09;;;;;;;8.88;7.15;;;10.50;81.40;;;;;;4822711;29;20030;-83
2024/02/29 10:42:39;;;;;;;8.23;6.68;;;10.50;81.40;;;;;;4817779;29;20027;-83
2024/02/29 10:45:14;;;;;;;8.75;6.97;;;10.50;81.40;;;;;;4811774;29;20038;-83
2024/02/29 10:47:43;;;;;;;9.13;6.50;;;10.50;81.40;;;;;;4806527;29;20033;-96
2024/02/29 10:50:14;;;;;;;8.30;6.70;;;10.60;81.40;;;;;;4797381;29;20496;-81
2024/02/29 10:52:48;;;;;;;9.27;6.65;;;10.60;81.40;;;;;;4784212;29;20572;-80
2024/02/29 10:55:21;;;;;;;8.55;6.20;;;10.60;81.40;;;;;;4807751;29;20118;-89
2024/02/29 10:58:15;;;;;;;9.18;6.20;;;10.60;81.30;;;;;;4808172;29;20487;-88
2024/02/29 11:00:43;;;;;;;8.13;6.43;;;10.60;81.40;;;;;;4799921;29;20035;-83
2024/02/29 11:03:09;;;;;;;8.80;6.50;;;10.60;81.30;;;;;;4791765;29;20039;-81
2024/02/29 11:05:37;;;;;;;9.75;6.40;;;10.70;81.30;;;;;;4803933;29;20035;-84
2024/02/29 11:08:04;;;;;;;8.02;6.30;;;10.70;81.30;;;;;;4783618;29;20038;-88
2024/02/29 11:10:30;;;;;;;8.73;6.28;;;10.70;81.30;;;;;;4787064;29;20417;-82
2024/02/29 11:12:57;;;;;;;9.43;6.30;;;10.70;81.30;;;;;;4794969;29;20053;-83
2024/02/29 11:15:28;;;;;;;9.15;6.53;;;10.70;81.30;;;;;;4778321;29;20035;-83
2024/02/29 11:17:54;;;;;;;10.38;6.85;;;10.80;81.30;;;;;;4793737;29;20133;-81
2024/02/29 11:20:20;;;;;;;9.60;6.80;;;10.80;81.30;;;;;;4791033;29;20164;-95
2024/02/29 11:22:47;;;;;;;9.13;6.70;;;10.80;81.30;;;;;;4809479;29;20066;-96
2024/02/29 11:25:23;;;;;;;10.85;6.55;;;10.80;81.30;;;;;;4798029;29;20067;-82
2024/02/29 11:27:52;;;;;;;8.23;6.10;;;10.90;81.30;;;;;;4803644;29;20026;-96
2024/02/29 11:30:21;;;;;;;8.60;6.47;;;10.80;81.20;;;;;;4819983;29;20043;-89
2024/02/29 11:32:47;;;;;;;8.45;6.45;;;10.90;81.20;;;;;;4809648;29;20022;-83
2024/02/29 11:35:16;;;;;;;9.07;6.63;;;10.90;81.80;;;;;;4791952;29;20045;-89
2024/02/29 11:37:44;;;;;;;8.95;6.63;;;10.90;81.20;;;;;;4801413;29;20023;-90
2024/02/29 11:40:18;;;;;;;8.73;6.60;;;10.90;81.20;;;;;;4794291;29;20038;-84
2024/02/29 11:42:44;;;;;;;7.88;6.28;;;11.00;81.20;;;;;;4805689;29;20110;-89
2024/02/29 11:45:23;;;;;;;7.63;6.07;;;11.00;81.20;;;;;;4807626;29;20117;-91
2024/02/29 11:47:49;;;;;;;8.68;6.40;;;11.00;81.20;;;;;;4805439;29;20034;-83
2024/02/29 11:50:15;;;;;;;8.85;6.50;;;11.00;81.20;;;;;;4799879;29;20137;-83
2024/02/29 11:52:42;;;;;;;9.10;6.75;;;11.00;81.20;;;;;;4801643;29;20061;-92
2024/02/29 11:55:10;;;;;;;9.70;7.10;;;11.00;81.20;;;;;;4814278;29;20038;-83
2024/02/29 11:57:36;;;;;;;9.45;6.40;;;11.10;81.20;;;;;;4801867;29;20096;-82
2024/02/29 12:00:04;;;;;;;8.48;6.72;;;11.10;81.20;;;;;;4801855;29;20026;-82
2024/02/29 12:02:30;;;;;;;9.48;6.90;;;11.10;81.20;;;;;;4811950;29;20041;-91
2024/02/29 12:04:57;;;;;;;8.07;6.07;;;11.10;81.20;;;;;;4792906;29;20025;-85
2024/02/29 12:07:25;;;;;;;8.25;6.47;;;11.10;81.20;;;;;;4797272;29;20035;-88
2024/02/29 12:09:51;;;;;;;8.85;6.72;;;11.20;81.20;;;;;;4802966;29;20075;-85
2024/02/29 12:12:22;;;;;;;9.23;6.70;;;11.20;81.20;;;;;;4790917;29;20041;-82
2024/02/29 12:14:49;;;;;;;8.88;6.65;;;11.20;81.20;;;;;;4793994;29;20107;-90
2024/02/29 12:17:16;;;;;;;8.27;6.25;;;11.20;81.20;;;;;;4784203;29;20034;-82
2024/02/29 12:19:42;;;;;;;9.73;6.30;;;11.20;81.20;;;;;;4816924;29;20538;-81
2024/02/29 12:22:12;;;;;;;8.07;6.43;;;11.20;81.20;;;;;;4791688;29;20491;-82
2024/02/29 12:24:38;;;;;;;8.07;6.00;;;11.30;81.20;;;;;;4792555;29;20026;-89
2024/02/29 12:27:05;;;;;;;7.70;5.95;;;11.30;81.20;;;;;;4796098;29;20033;-89
2024/02/29 12:29:30;;;;;;;9.25;6.60;;;11.30;81.20;;;;;;4795582;29;20053;-84
2024/02/29 12:31:59;;;;;;;9.10;6.53;;;11.30;81.20;;;;;;4793547;29;20053;-89
2024/02/29 12:34:28;;;;;;;8.65;6.03;;;11.30;81.20;;;;;;4806749;29;20027;-82
2024/02/29 12:36:59;;;;;;;8.45;6.00;;;11.30;81.20;;;;;;4793033;29;20035;-82
2024/02/29 12:39:24;;;;;;;7.82;6.00;;;11.40;81.20;;;;;;4799707;29;20038;-96
2024/02/29 12:41:52;;;;;;;8.18;6.18;;;11.30;81.20;;;;;;4822945;29;20026;-96
2024/02/29 12:44:18;;;;;;;8.40;6.43;;;11.40;81.20;;;;;;4815037;29;20389;-82
2024/02/29 12:46:43;;;;;;;8.48;6.03;;;11.40;81.20;;;;;;4803754;29;20041;-95
2024/02/29 12:49:09;;;;;;;7.90;5.95;;;11.40;81.20;;;;;;4803555;29;20027;-88
2024/02/29 12:51:35;;;;;;;7.72;5.85;;;11.40;81.20;;;;;;4817798;29;20038;-81
2024/02/29 12:54:02;;;;;;;7.18;5.75;;;11.50;81.20;;;;;;4792419;29;20049;-82